Time;durP1;ratioP1;P1;durP2;ratioP2;P2;SDS_P1;SDS_P2;PMS_P1;PMS_P2;Temp;Humidity;BMP_temperature;BMP_pressure;BME280_temperature;BME280_humidity;BME280_pressure;Samples;Min_cycle;Max_cycle;Signal;HPM_P1;HPM_P2
2023/01/06 00:02:20;;;;;;;16.10;6.82;;;;;;;;;;5055701;28;20442;-77
2023/01/06 00:04:46;;;;;;;16.38;6.40;;;;;;;;;;5055389;28;20111;-77
2023/01/06 00:07:11;;;;;;;11.20;6.22;;;;;;;;;;5073276;28;20032;-77
2023/01/06 00:09:37;;;;;;;15.35;6.30;;;;;;;;;;5073557;28;20036;-77
2023/01/06 00:12:03;;;;;;;13.25;5.97;;;;;;;;;;5073215;28;20361;-77
2023/01/06 00:14:28;;;;;;;11.63;5.82;;;;;;;;;;5073545;28;20169;-78
2023/01/06 00:16:54;;;;;;;15.77;5.30;;;;;;;;;;5073478;28;20033;-76
2023/01/06 00:19:19;;;;;;;10.75;4.65;;;;;;;;;;5073088;28;20537;-77
2023/01/06 00:21:45;;;;;;;10.15;4.18;;;;;;;;;;5058057;28;20046;-77
2023/01/06 00:24:10;;;;;;;10.98;4.32;;;;;;;;;;5059025;28;20051;-77
2023/01/06 00:26:36;;;;;;;12.68;4.50;;;;;;;;;;5076351;28;20070;-77
2023/01/06 00:29:02;;;;;;;8.07;3.83;;;;;;;;;;5076852;28;20040;-77
2023/01/06 00:31:27;;;;;;;7.88;3.85;;;;;;;;;;5058690;28;20060;-77
2023/01/06 00:33:55;;;;;;;11.75;4.28;;;;;;;;;;5076399;28;20089;-78
2023/01/06 00:36:20;;;;;;;9.20;4.10;;;;;;;;;;5076530;28;20057;-78
2023/01/06 00:38:47;;;;;;;10.43;3.67;;;;;;;;;;5076745;28;20106;-77
2023/01/06 00:43:57;;;;;;;10.77;4.13;;;;;;;;;;5061287;28;20456;-77
2023/01/06 00:46:25;;;;;;;8.13;4.20;;;;;;;;;;5058747;28;20058;-77
2023/01/06 00:48:51;;;;;;;12.73;4.47;;;;;;;;;;5077011;28;20033;-77
2023/01/06 00:51:16;;;;;;;6.90;3.85;;;;;;;;;;5076229;28;20523;-77
2023/01/06 00:53:42;;;;;;;8.55;4.18;;;;;;;;;;5058180;28;20038;-77
2023/01/06 00:56:07;;;;;;;9.85;4.32;;;;;;;;;;5058605;28;20025;-78
2023/01/06 00:58:33;;;;;;;8.07;3.78;;;;;;;;;;5076208;28;20105;-77
2023/01/06 01:00:58;;;;;;;13.20;4.70;;;;;;;;;;5058364;28;20025;-77
2023/01/06 01:03:24;;;;;;;9.63;4.18;;;;;;;;;;5041714;28;20024;-77
2023/01/06 01:05:49;;;;;;;13.45;4.55;;;;;;;;;;5076166;28;20123;-77
2023/01/06 01:08:14;;;;;;;8.40;4.03;;;;;;;;;;5075732;28;20143;-77
2023/01/06 01:10:40;;;;;;;9.50;4.10;;;;;;;;;;5057971;28;20024;-77
2023/01/06 01:13:05;;;;;;;10.88;4.20;;;;;;;;;;5091511;28;20028;-78
2023/01/06 01:15:31;;;;;;;8.07;4.30;;;;;;;;;;5058166;28;20571;-76
2023/01/06 01:17:56;;;;;;;10.15;4.63;;;;;;;;;;5075939;28;20047;-78
2023/01/06 01:20:22;;;;;;;10.52;5.03;;;;;;;;;;5076280;28;20357;-78
2023/01/06 01:22:47;;;;;;;9.88;4.70;;;;;;;;;;5076144;28;20024;-77
2023/01/06 01:25:13;;;;;;;10.13;5.38;;;;;;;;;;5057617;28;20032;-77
2023/01/06 01:27:39;;;;;;;10.43;5.05;;;;;;;;;;5075768;28;20035;-78
2023/01/06 01:30:05;;;;;;;14.00;5.80;;;;;;;;;;5075710;28;20028;-78
2023/01/06 01:32:30;;;;;;;12.02;5.88;;;;;;;;;;5075035;28;20028;-76
2023/01/06 01:34:56;;;;;;;11.43;5.90;;;;;;;;;;5075637;28;20071;-76
2023/01/06 01:37:21;;;;;;;14.70;6.25;;;;;;;;;;5075928;28;20028;-77
2023/01/06 01:39:48;;;;;;;14.48;6.30;;;;;;;;;;5057635;28;20040;-76
2023/01/06 01:42:17;;;;;;;15.38;6.78;;;;;;;;;;5077017;28;20044;-77
2023/01/06 01:45:06;;;;;;;21.67;6.85;;;;;;;;;;5078092;28;20060;-79
2023/01/06 01:47:46;;;;;;;13.57;6.60;;;;;;;;;;5044652;28;20040;-78
2023/01/06 01:50:21;;;;;;;13.48;6.72;;;;;;;;;;5060973;28;20439;-77
2023/01/06 01:52:48;;;;;;;11.93;6.22;;;;;;;;;;5078805;28;20032;-77
2023/01/06 01:55:13;;;;;;;13.27;6.30;;;;;;;;;;5061273;28;20036;-76
2023/01/06 01:57:43;;;;;;;13.13;6.20;;;;;;;;;;5059240;28;20032;-77
2023/01/06 02:00:08;;;;;;;14.13;6.57;;;;;;;;;;5060860;28;20119;-76
2023/01/06 02:02:34;;;;;;;15.35;7.15;;;;;;;;;;5076548;28;20052;-78
2023/01/06 02:04:59;;;;;;;13.10;6.70;;;;;;;;;;5042373;28;20025;-76
2023/01/06 02:07:25;;;;;;;10.93;6.03;;;;;;;;;;5056644;28;20033;-76
2023/01/06 02:10:10;;;;;;;12.18;6.45;;;;;;;;;;5056920;28;20081;-77
2023/01/06 02:12:35;;;;;;;15.85;6.60;;;;;;;;;;5057881;28;20033;-77
2023/01/06 02:15:01;;;;;;;17.27;6.32;;;;;;;;;;5040228;28;20082;-76
2023/01/06 02:17:47;;;;;;;15.50;6.75;;;;;;;;;;5056977;28;20145;-77
2023/01/06 02:20:43;;;;;;;15.18;6.65;;;;;;;;;;5058402;28;20024;-77
2023/01/06 02:23:20;;;;;;;17.50;6.35;;;;;;;;;;5056657;28;20036;-77
2023/01/06 02:26:24;;;;;;;13.63;6.60;;;;;;;;;;5056800;28;20052;-77
2023/01/06 02:28:49;;;;;;;13.57;6.40;;;;;;;;;;5043165;28;20051;-77
2023/01/06 02:31:45;;;;;;;14.18;6.60;;;;;;;;;;5056334;28;20467;-77
2023/01/06 02:34:49;;;;;;;13.45;7.43;;;;;;;;;;5074023;28;20048;-77
2023/01/06 02:37:29;;;;;;;14.18;7.45;;;;;;;;;;5036025;28;20385;-77
2023/01/06 02:40:03;;;;;;;12.30;6.45;;;;;;;;;;5074470;28;20043;-77
2023/01/06 02:42:36;;;;;;;13.43;6.47;;;;;;;;;;5074391;28;20024;-77
2023/01/06 02:45:13;;;;;;;11.50;6.13;;;;;;;;;;5055906;28;20577;-77
2023/01/06 02:47:59;;;;;;;15.10;6.32;;;;;;;;;;5074407;28;20107;-78
2023/01/06 02:50:39;;;;;;;11.07;6.15;;;;;;;;;;5073162;28;20048;-78
2023/01/06 02:53:17;;;;;;;13.02;6.10;;;;;;;;;;5074280;28;20035;-77
2023/01/06 02:55:47;;;;;;;10.90;5.95;;;;;;;;;;5074612;28;20089;-77
2023/01/06 02:58:34;;;;;;;11.32;5.97;;;;;;;;;;5040003;28;20142;-76
2023/01/06 03:01:16;;;;;;;12.93;6.25;;;;;;;;;;5074155;28;20037;-77
2023/01/06 03:03:44;;;;;;;14.00;6.25;;;;;;;;;;5041510;28;20035;-77
2023/01/06 03:06:12;;;;;;;14.07;6.50;;;;;;;;;;5039344;28;20465;-78
2023/01/06 03:08:37;;;;;;;12.55;6.45;;;;;;;;;;5055925;28;20047;-77
2023/01/06 03:11:03;;;;;;;14.93;6.50;;;;;;;;;;5056399;28;20377;-77
2023/01/06 03:13:49;;;;;;;13.45;6.60;;;;;;;;;;5022757;28;20028;-76
2023/01/06 03:16:15;;;;;;;14.13;5.72;;;;;;;;;;5023927;28;20447;-77
2023/01/06 03:18:41;;;;;;;15.82;6.20;;;;;;;;;;5039241;28;20043;-78
2023/01/06 03:21:12;;;;;;;10.93;6.03;;;;;;;;;;5056179;28;20036;-77
2023/01/06 03:23:39;;;;;;;16.05;5.50;;;;;;;;;;5039474;28;21125;-77
2023/01/06 03:26:04;;;;;;;10.13;5.40;;;;;;;;;;5056281;28;20029;-77
2023/01/06 03:28:29;;;;;;;8.55;5.07;;;;;;;;;;5055775;28;20036;-78
2023/01/06 03:31:06;;;;;;;11.68;5.72;;;;;;;;;;5073631;28;20071;-77
2023/01/06 03:33:52;;;;;;;12.82;5.45;;;;;;;;;;5055938;28;20043;-77
2023/01/06 03:36:40;;;;;;;10.00;5.22;;;;;;;;;;5072845;28;20040;-79
2023/01/06 03:39:15;;;;;;;9.30;4.70;;;;;;;;;;5055937;28;20047;-78
2023/01/06 03:44:50;;;;;;;8.88;4.40;;;;;;;;;;5073563;28;20099;-78
2023/01/06 03:47:40;;;;;;;10.23;3.60;;;;;;;;;;5039658;28;20514;-77
2023/01/06 03:50:21;;;;;;;8.70;4.13;;;;;;;;;;5048036;28;20053;-77
2023/01/06 03:52:49;;;;;;;8.35;3.80;;;;;;;;;;5040374;28;20120;-77
2023/01/06 03:55:16;;;;;;;7.22;3.78;;;;;;;;;;5039594;28;20126;-77
2023/01/06 03:57:43;;;;;;;9.27;4.20;;;;;;;;;;5043101;28;20043;-77
2023/01/06 04:00:10;;;;;;;8.40;3.83;;;;;;;;;;5043139;28;20408;-77
2023/01/06 04:02:36;;;;;;;6.00;3.40;;;;;;;;;;5059637;28;20043;-77
2023/01/06 04:05:13;;;;;;;9.30;3.92;;;;;;;;;;5059252;28;20040;-77
2023/01/06 04:07:39;;;;;;;10.80;3.35;;;;;;;;;;5059099;28;20086;-76
2023/01/06 04:10:05;;;;;;;5.63;3.00;;;;;;;;;;5076980;28;20025;-78
2023/01/06 04:12:40;;;;;;;5.28;3.08;;;;;;;;;;5077151;28;20141;-77
2023/01/06 04:15:16;;;;;;;6.85;3.33;;;;;;;;;;5060609;28;20388;-76
2023/01/06 04:17:42;;;;;;;9.20;3.65;;;;;;;;;;5060394;28;20029;-77
2023/01/06 04:20:09;;;;;;;6.25;3.38;;;;;;;;;;5042550;28;20115;-77
2023/01/06 04:22:35;;;;;;;8.82;3.63;;;;;;;;;;5076966;28;20032;-78
2023/01/06 04:25:00;;;;;;;11.93;4.93;;;;;;;;;;5060859;28;20033;-78
2023/01/06 04:27:26;;;;;;;10.23;4.00;;;;;;;;;;5077021;28;20028;-77
2023/01/06 04:29:51;;;;;;;10.40;3.45;;;;;;;;;;5077199;28;20029;-76
2023/01/06 04:32:17;;;;;;;6.95;3.75;;;;;;;;;;5058636;28;20032;-76
2023/01/06 04:34:42;;;;;;;10.82;3.90;;;;;;;;;;5058830;28;20044;-77
2023/01/06 04:37:09;;;;;;;8.77;4.18;;;;;;;;;;5077007;28;20074;-77
2023/01/06 04:39:34;;;;;;;10.27;3.97;;;;;;;;;;5058800;28;20032;-77
2023/01/06 04:42:00;;;;;;;7.85;4.25;;;;;;;;;;5076708;28;20062;-76
2023/01/06 04:44:26;;;;;;;9.68;4.10;;;;;;;;;;5076430;28;20021;-77
2023/01/06 04:46:51;;;;;;;13.93;4.47;;;;;;;;;;5058391;28;20082;-77
2023/01/06 04:49:16;;;;;;;10.43;4.30;;;;;;;;;;5076946;28;20353;-77
2023/01/06 04:51:42;;;;;;;11.43;4.18;;;;;;;;;;5058369;28;20377;-77
2023/01/06 04:54:07;;;;;;;5.55;3.28;;;;;;;;;;5058546;28;20446;-76
2023/01/06 04:56:33;;;;;;;9.02;3.95;;;;;;;;;;5076453;28;20484;-76
2023/01/06 04:58:58;;;;;;;12.23;4.00;;;;;;;;;;5059020;28;20079;-78
2023/01/06 05:01:24;;;;;;;9.27;3.63;;;;;;;;;;5058564;28;20032;-77
2023/01/06 05:03:50;;;;;;;7.30;3.67;;;;;;;;;;5058513;28;20032;-77
2023/01/06 05:06:15;;;;;;;6.93;3.30;;;;;;;;;;5041487;28;20527;-78
2023/01/06 05:08:41;;;;;;;8.07;3.72;;;;;;;;;;5042032;28;20445;-78
2023/01/06 05:11:16;;;;;;;7.47;3.35;;;;;;;;;;5058138;28;20445;-78
2023/01/06 05:13:41;;;;;;;8.05;3.40;;;;;;;;;;5076078;28;20029;-77
2023/01/06 05:16:13;;;;;;;7.75;3.45;;;;;;;;;;5057942;28;20159;-77
2023/01/06 05:18:39;;;;;;;5.18;3.15;;;;;;;;;;5058386;28;20044;-77
2023/01/06 05:21:04;;;;;;;9.35;4.20;;;;;;;;;;5075092;28;20100;-77
2023/01/06 05:23:30;;;;;;;8.75;3.97;;;;;;;;;;5075280;28;20063;-78
2023/01/06 05:25:55;;;;;;;7.03;3.60;;;;;;;;;;5057725;28;20119;-77
2023/01/06 05:28:21;;;;;;;11.60;4.80;;;;;;;;;;5075415;28;20033;-77
2023/01/06 05:30:47;;;;;;;6.43;3.88;;;;;;;;;;5073793;28;20024;-77
2023/01/06 05:33:12;;;;;;;7.53;3.97;;;;;;;;;;5075875;28;20480;-78
2023/01/06 05:35:38;;;;;;;10.30;3.83;;;;;;;;;;5075274;28;20402;-78
2023/01/06 05:38:17;;;;;;;6.90;3.75;;;;;;;;;;5056761;28;20071;-77
2023/01/06 05:40:42;;;;;;;6.93;3.33;;;;;;;;;;5074398;28;20024;-78
2023/01/06 05:43:07;;;;;;;6.32;3.42;;;;;;;;;;5073820;28;20021;-77
2023/01/06 05:45:33;;;;;;;6.88;3.67;;;;;;;;;;5073387;28;20078;-77
2023/01/06 05:48:01;;;;;;;11.65;5.00;;;;;;;;;;5021844;28;20021;-76
2023/01/06 05:50:35;;;;;;;11.25;4.60;;;;;;;;;;5055628;28;20086;-77
2023/01/06 05:53:03;;;;;;;15.13;5.80;;;;;;;;;;5070684;28;20036;-77
2023/01/06 05:55:28;;;;;;;17.67;6.70;;;;;;;;;;5051013;28;20094;-79
2023/01/06 05:58:09;;;;;;;14.23;5.03;;;;;;;;;;5049196;28;20024;-79
2023/01/06 06:00:47;;;;;;;10.45;4.30;;;;;;;;;;5065571;28;20036;-77
2023/01/06 06:03:15;;;;;;;7.28;3.50;;;;;;;;;;5065736;28;20040;-78
2023/01/06 06:05:41;;;;;;;8.57;3.67;;;;;;;;;;5051212;28;20072;-78
2023/01/06 06:08:06;;;;;;;9.57;3.90;;;;;;;;;;5069311;28;20093;-79
2023/01/06 06:10:47;;;;;;;9.77;4.25;;;;;;;;;;5068144;28;20085;-80
2023/01/06 06:13:12;;;;;;;19.38;5.93;;;;;;;;;;5057531;28;20131;-79
2023/01/06 06:15:38;;;;;;;13.43;6.63;;;;;;;;;;5069348;28;20128;-78
2023/01/06 06:18:03;;;;;;;10.80;5.15;;;;;;;;;;5067934;28;20064;-79
2023/01/06 06:20:29;;;;;;;9.38;3.83;;;;;;;;;;5069555;28;20024;-78
2023/01/06 06:22:54;;;;;;;9.75;3.70;;;;;;;;;;5057590;28;20045;-77
2023/01/06 06:25:20;;;;;;;6.82;2.90;;;;;;;;;;5058105;28;20054;-81
2023/01/06 06:27:45;;;;;;;8.25;3.60;;;;;;;;;;5032097;28;20041;-79
2023/01/06 06:30:11;;;;;;;8.38;3.55;;;;;;;;;;5067526;28;20457;-78
2023/01/06 06:32:37;;;;;;;8.88;3.20;;;;;;;;;;5051190;28;20473;-79
2023/01/06 06:35:02;;;;;;;7.10;2.95;;;;;;;;;;5071166;28;20044;-79
2023/01/06 06:37:28;;;;;;;5.53;2.97;;;;;;;;;;5071312;28;20098;-79
2023/01/06 06:39:53;;;;;;;5.63;3.03;;;;;;;;;;5020453;28;20690;-77
2023/01/06 06:42:19;;;;;;;11.00;3.28;;;;;;;;;;5071547;28;20409;-78
2023/01/06 06:44:51;;;;;;;6.07;3.20;;;;;;;;;;5056630;28;20037;-80
2023/01/06 06:47:17;;;;;;;9.75;3.65;;;;;;;;;;5035595;28;20051;-78
2023/01/06 06:49:42;;;;;;;8.82;4.10;;;;;;;;;;5050860;28;20108;-78
2023/01/06 06:52:09;;;;;;;9.57;3.47;;;;;;;;;;5051009;28;20063;-80
2023/01/06 06:54:35;;;;;;;7.97;2.67;;;;;;;;;;5071304;28;20029;-78
2023/01/06 06:57:09;;;;;;;9.52;3.30;;;;;;;;;;5069477;28;20032;-76
2023/01/06 06:59:35;;;;;;;8.30;3.38;;;;;;;;;;5069300;28;20634;-79
2023/01/06 07:02:01;;;;;;;8.38;3.90;;;;;;;;;;5020425;28;20028;-77
2023/01/06 07:04:26;;;;;;;6.63;3.38;;;;;;;;;;5070880;28;20040;-78
2023/01/06 07:06:52;;;;;;;10.38;4.15;;;;;;;;;;5069681;28;20036;-79
2023/01/06 07:09:17;;;;;;;11.43;4.10;;;;;;;;;;5053925;28;20021;-81
2023/01/06 07:11:42;;;;;;;8.93;4.55;;;;;;;;;;5052222;28;20100;-78
2023/01/06 07:14:10;;;;;;;11.48;5.03;;;;;;;;;;5017923;28;20377;-79
2023/01/06 07:16:35;;;;;;;8.48;4.30;;;;;;;;;;5050584;28;20037;-79
2023/01/06 07:19:01;;;;;;;10.85;5.07;;;;;;;;;;5068986;28;20094;-79
2023/01/06 07:21:26;;;;;;;8.82;4.22;;;;;;;;;;5051854;28;20032;-79
2023/01/06 07:23:55;;;;;;;12.82;4.07;;;;;;;;;;5071012;28;20028;-77
2023/01/06 07:26:20;;;;;;;8.93;4.20;;;;;;;;;;5074666;28;20032;-79
2023/01/06 07:28:46;;;;;;;13.55;4.63;;;;;;;;;;5083463;28;20028;-80
2023/01/06 07:31:12;;;;;;;9.48;4.30;;;;;;;;;;5050287;28;20032;-78
2023/01/06 07:33:37;;;;;;;12.73;4.70;;;;;;;;;;5031099;28;20127;-78
2023/01/06 07:36:03;;;;;;;6.78;3.30;;;;;;;;;;5076780;28;20020;-78
2023/01/06 07:38:30;;;;;;;9.20;3.33;;;;;;;;;;5077220;28;20091;-78
2023/01/06 07:40:59;;;;;;;9.07;3.75;;;;;;;;;;5077545;28;20060;-78
2023/01/06 07:43:25;;;;;;;14.27;4.40;;;;;;;;;;5056584;28;20126;-79
2023/01/06 07:45:50;;;;;;;12.88;4.03;;;;;;;;;;5038370;28;20150;-80
2023/01/06 07:48:18;;;;;;;8.48;3.80;;;;;;;;;;5054487;28;20025;-79
2023/01/06 07:51:08;;;;;;;10.63;3.33;;;;;;;;;;5066768;28;20052;-80
2023/01/06 07:54:00;;;;;;;5.90;3.10;;;;;;;;;;5068854;28;20021;-81
2023/01/06 07:56:31;;;;;;;6.43;2.58;;;;;;;;;;5034124;28;20519;-79
2023/01/06 07:58:56;;;;;;;13.23;5.65;;;;;;;;;;5036553;28;20029;-78
2023/01/06 08:01:25;;;;;;;7.93;4.43;;;;;;;;;;5058941;28;20056;-79
2023/01/06 08:03:57;;;;;;;13.10;2.97;;;;;;;;;;5038694;28;20377;-78
2023/01/06 08:06:25;;;;;;;6.10;3.08;;;;;;;;;;5033136;28;20084;-78
2023/01/06 08:08:50;;;;;;;7.97;2.67;;;;;;;;;;5042135;28;20556;-78
2023/01/06 08:11:16;;;;;;;7.78;2.85;;;;;;;;;;5049542;28;20039;-79
2023/01/06 08:13:41;;;;;;;4.82;2.58;;;;;;;;;;5077550;28;20165;-80
2023/01/06 08:16:08;;;;;;;5.55;2.28;;;;;;;;;;5052654;28;20025;-78
2023/01/06 08:18:34;;;;;;;5.55;2.70;;;;;;;;;;5052180;28;20033;-80
2023/01/06 08:21:06;;;;;;;8.77;2.90;;;;;;;;;;5066307;28;20025;-78
2023/01/06 08:23:31;;;;;;;5.82;2.95;;;;;;;;;;5053915;28;20047;-79
2023/01/06 08:26:03;;;;;;;5.38;2.88;;;;;;;;;;5020755;28;20033;-81
2023/01/06 08:28:29;;;;;;;8.63;2.70;;;;;;;;;;5053677;28;20500;-78
2023/01/06 08:31:01;;;;;;;7.95;3.13;;;;;;;;;;5074718;28;20034;-78
2023/01/06 08:33:26;;;;;;;6.43;2.97;;;;;;;;;;5050247;28;20037;-78
2023/01/06 08:36:00;;;;;;;10.10;2.95;;;;;;;;;;5028659;28;20132;-79
2023/01/06 08:39:13;;;;;;;7.78;2.60;;;;;;;;;;5023571;28;20175;-76
2023/01/06 08:41:38;;;;;;;7.43;2.65;;;;;;;;;;5030067;28;20067;-79
2023/01/06 08:44:04;;;;;;;9.68;2.75;;;;;;;;;;5028756;28;20104;-80
2023/01/06 08:46:30;;;;;;;9.38;2.90;;;;;;;;;;5031452;28;20033;-79
2023/01/06 08:48:59;;;;;;;8.55;2.67;;;;;;;;;;5014401;28;20029;-80
2023/01/06 08:51:24;;;;;;;11.30;2.65;;;;;;;;;;4997490;28;20033;-79
2023/01/06 08:53:50;;;;;;;11.38;3.13;;;;;;;;;;5031678;28;20041;-79
2023/01/06 08:56:19;;;;;;;8.95;2.83;;;;;;;;;;5028992;28;20041;-78
2023/01/06 08:58:44;;;;;;;11.98;3.47;;;;;;;;;;5032111;28;20318;-78
2023/01/06 09:01:17;;;;;;;8.95;2.60;;;;;;;;;;4992263;28;20176;-80
2023/01/06 09:03:43;;;;;;;16.17;3.10;;;;;;;;;;5025378;28;20100;-79
2023/01/06 09:06:09;;;;;;;11.88;2.97;;;;;;;;;;5002591;28;20614;-79
2023/01/06 09:08:34;;;;;;;20.10;3.10;;;;;;;;;;5025673;28;20090;-78
2023/01/06 09:11:07;;;;;;;5.10;2.53;;;;;;;;;;5024186;28;20025;-78
2023/01/06 09:13:36;;;;;;;8.50;2.95;;;;;;;;;;5009409;28;20029;-80
2023/01/06 09:16:55;;;;;;;6.55;2.30;;;;;;;;;;5031953;28;20030;-76
2023/01/06 09:19:54;;;;;;;7.93;2.40;;;;;;;;;;5040012;28;20455;-79
2023/01/06 09:22:20;;;;;;;8.67;2.10;;;;;;;;;;5028605;28;20369;-78
2023/01/06 09:24:45;;;;;;;20.17;3.22;;;;;;;;;;5029245;28;20075;-79
2023/01/06 09:27:13;;;;;;;8.77;2.90;;;;;;;;;;5029754;28;20359;-77
2023/01/06 09:29:38;;;;;;;16.08;3.35;;;;;;;;;;5031189;28;20068;-77
2023/01/06 09:32:05;;;;;;;10.05;3.15;;;;;;;;;;5034739;28;20072;-79
2023/01/06 09:34:34;;;;;;;8.40;2.63;;;;;;;;;;5051624;28;20055;-78
2023/01/06 09:37:00;;;;;;;6.20;2.58;;;;;;;;;;5072500;28;20068;-78
2023/01/06 09:39:26;;;;;;;11.70;5.72;;;;;;;;;;5055409;28;20083;-79
2023/01/06 09:41:57;;;;;;;19.75;3.13;;;;;;;;;;5073311;28;20112;-78
2023/01/06 09:44:33;;;;;;;14.77;2.70;;;;;;;;;;5074107;28;20043;-78
2023/01/06 09:46:59;;;;;;;8.05;2.00;;;;;;;;;;5037965;28;20111;-80
2023/01/06 09:49:39;;;;;;;8.13;2.38;;;;;;;;;;5038061;28;20288;-79
2023/01/06 09:52:20;;;;;;;10.02;2.63;;;;;;;;;;5070780;28;20121;-80
2023/01/06 09:54:58;;;;;;;6.50;2.45;;;;;;;;;;5071958;28;20028;-79
2023/01/06 09:57:39;;;;;;;5.25;2.40;;;;;;;;;;5039950;28;20032;-81
2023/01/06 10:00:07;;;;;;;8.50;2.63;;;;;;;;;;5054356;28;20036;-80
2023/01/06 10:02:37;;;;;;;12.35;2.92;;;;;;;;;;5037484;28;20205;-78
2023/01/06 10:05:18;;;;;;;12.98;2.80;;;;;;;;;;5037106;28;20021;-81
2023/01/06 10:08:18;;;;;;;11.25;2.78;;;;;;;;;;5037848;28;20426;-80
2023/01/06 10:10:53;;;;;;;8.40;2.50;;;;;;;;;;5021413;28;20084;-79
2023/01/06 10:13:47;;;;;;;9.50;2.65;;;;;;;;;;5071716;28;20032;-79
2023/01/06 10:16:38;;;;;;;21.15;2.47;;;;;;;;;;5073550;28;20433;-86
2023/01/06 10:19:45;;;;;;;5.53;2.40;;;;;;;;;;5059552;28;20470;-86
2023/01/06 10:22:35;;;;;;;15.77;2.70;;;;;;;;;;5070052;28;20033;-84
2023/01/06 10:25:26;;;;;;;4.90;2.63;;;;;;;;;;5072758;28;20131;-86
2023/01/06 10:27:58;;;;;;;11.98;3.33;;;;;;;;;;5073424;28;20451;-86
2023/01/06 10:30:36;;;;;;;14.13;7.75;;;;;;;;;;5056416;28;20120;-86
2023/01/06 10:33:04;;;;;;;12.88;4.40;;;;;;;;;;5073993;28;20052;-84
2023/01/06 10:35:30;;;;;;;11.43;2.97;;;;;;;;;;5057851;28;20079;-82
2023/01/06 10:38:00;;;;;;;8.13;2.83;;;;;;;;;;5065243;28;20043;-85
2023/01/06 10:40:43;;;;;;;12.38;2.38;;;;;;;;;;5042712;28;20067;-86
2023/01/06 10:43:10;;;;;;;8.55;3.10;;;;;;;;;;5044282;28;20079;-85
2023/01/06 10:45:45;;;;;;;4.45;2.58;;;;;;;;;;5054730;28;20429;-85
2023/01/06 10:48:12;;;;;;;14.32;4.60;;;;;;;;;;5055535;28;20024;-83
2023/01/06 10:50:39;;;;;;;8.02;3.30;;;;;;;;;;5045565;28;20438;-85
2023/01/06 10:53:04;;;;;;;7.43;3.13;;;;;;;;;;5050582;28;20112;-84
2023/01/06 10:55:52;;;;;;;11.27;2.17;;;;;;;;;;5064221;28;20089;-84
2023/01/06 10:58:34;;;;;;;6.28;2.30;;;;;;;;;;5101134;28;20094;-85
2023/01/06 11:01:15;;;;;;;4.10;2.00;;;;;;;;;;5055887;28;20024;-85
2023/01/06 11:03:41;;;;;;;6.72;2.63;;;;;;;;;;5070846;28;20348;-85
2023/01/06 11:06:27;;;;;;;5.53;2.28;;;;;;;;;;5072472;28;20044;-87
2023/01/06 11:08:56;;;;;;;5.13;2.45;;;;;;;;;;5072025;28;20327;-86
2023/01/06 11:11:22;;;;;;;7.75;2.60;;;;;;;;;;5072156;28;20036;-85
2023/01/06 11:13:58;;;;;;;11.63;2.95;;;;;;;;;;5075529;28;20043;-86
2023/01/06 11:16:26;;;;;;;8.10;2.33;;;;;;;;;;5059666;28;20057;-86
2023/01/06 11:19:05;;;;;;;11.82;2.70;;;;;;;;;;5072058;28;20025;-85
2023/01/06 11:21:48;;;;;;;8.93;2.85;;;;;;;;;;5056891;28;20025;-86
2023/01/06 11:24:18;;;;;;;10.13;3.42;;;;;;;;;;5076211;28;20614;-86
2023/01/06 11:26:54;;;;;;;9.70;3.00;;;;;;;;;;5032793;28;20025;-87
2023/01/06 11:29:31;;;;;;;8.18;2.90;;;;;;;;;;5062302;28;20447;-85
2023/01/06 11:32:04;;;;;;;10.75;3.65;;;;;;;;;;5051291;28;20024;-87
2023/01/06 11:34:32;;;;;;;9.07;3.65;;;;;;;;;;5058855;22;20191;-87
2023/01/06 11:37:00;;;;;;;12.93;2.90;;;;;;;;;;5071777;28;20020;-85
2023/01/06 11:39:49;;;;;;;;;;;;;;;;;;;;;
2023/01/06 11:42:17;;;;;;;11.77;3.50;;;;;;;;;;5069192;28;20088;-85
2023/01/06 11:44:42;;;;;;;13.55;2.55;;;;;;;;;;5083654;28;20055;-83
2023/01/06 11:47:19;;;;;;;8.32;3.20;;;;;;;;;;5077892;28;20036;-84
2023/01/06 11:49:46;;;;;;;10.02;3.58;;;;;;;;;;5069979;28;20119;-83
2023/01/06 11:52:31;;;;;;;11.57;3.65;;;;;;;;;;5079710;28;20043;-86
2023/01/06 11:55:24;;;;;;;15.10;5.95;;;;;;;;;;5073685;28;20120;-86
2023/01/06 11:57:50;;;;;;;9.70;3.30;;;;;;;;;;5063191;28;20280;-85
2023/01/06 12:00:24;;;;;;;5.72;3.40;;;;;;;;;;5073618;28;20098;-85
2023/01/06 12:02:53;;;;;;;11.07;3.35;;;;;;;;;;5073804;28;20033;-84
2023/01/06 12:05:37;;;;;;;7.10;2.95;;;;;;;;;;5059099;28;20020;-84
2023/01/06 12:08:23;;;;;;;5.28;2.85;;;;;;;;;;5057839;28;20021;-86
2023/01/06 12:10:59;;;;;;;7.70;2.92;;;;;;;;;;5062335;28;20223;-86
2023/01/06 12:13:26;;;;;;;6.00;2.70;;;;;;;;;;5044061;28;20037;-85
2023/01/06 12:16:01;;;;;;;10.15;2.95;;;;;;;;;;5045715;28;20041;-87
2023/01/06 12:18:29;;;;;;;7.35;2.60;;;;;;;;;;5061480;28;20036;-84
2023/01/06 12:20:54;;;;;;;8.38;2.40;;;;;;;;;;5059553;28;20116;-86
2023/01/06 12:23:28;;;;;;;14.55;2.40;;;;;;;;;;5058258;28;20056;-85
2023/01/06 12:25:59;;;;;;;7.10;2.35;;;;;;;;;;5077596;28;20031;-83
2023/01/06 12:28:52;;;;;;;4.43;2.67;;;;;;;;;;5092785;28;20033;-83
2023/01/06 12:31:28;;;;;;;11.77;2.78;;;;;;;;;;5075020;28;20118;-87
2023/01/06 12:34:16;;;;;;;6.25;3.05;;;;;;;;;;5076616;28;20042;-85
2023/01/06 12:36:57;;;;;;;7.80;2.58;;;;;;;;;;5073046;28;20306;-86
2023/01/06 12:39:34;;;;;;;9.38;3.55;;;;;;;;;;5070979;28;20028;-84
2023/01/06 12:42:07;;;;;;;6.00;2.88;;;;;;;;;;5074232;28;20044;-83
2023/01/06 12:44:57;;;;;;;5.25;3.15;;;;;;;;;;5072716;28;20040;-86
2023/01/06 12:47:38;;;;;;;7.50;3.58;;;;;;;;;;5054793;28;20090;-85
2023/01/06 12:50:27;;;;;;;5.32;3.03;;;;;;;;;;5061443;28;20044;-85
2023/01/06 12:53:12;;;;;;;12.18;2.97;;;;;;;;;;5054462;28;20288;-83
2023/01/06 12:55:46;;;;;;;8.45;2.85;;;;;;;;;;5070379;28;20449;-83
2023/01/06 12:58:34;;;;;;;8.75;3.10;;;;;;;;;;5069401;28;20052;-84
2023/01/06 13:01:03;;;;;;;5.15;2.90;;;;;;;;;;5071384;28;20207;-85
2023/01/06 13:04:05;;;;;;;9.85;2.92;;;;;;;;;;5056824;28;20029;-85
2023/01/06 13:06:31;;;;;;;13.43;3.13;;;;;;;;;;5064705;28;20433;-84
2023/01/06 13:09:02;;;;;;;16.58;3.38;;;;;;;;;;5079248;28;20438;-84
2023/01/06 13:11:46;;;;;;;6.18;3.20;;;;;;;;;;5059215;28;20119;-85
2023/01/06 13:14:28;;;;;;;5.78;2.95;;;;;;;;;;5076362;28;20074;-84
2023/01/06 13:17:05;;;;;;;7.28;3.22;;;;;;;;;;5058806;28;20032;-85
2023/01/06 13:19:43;;;;;;;7.43;3.28;;;;;;;;;;5058169;28;20442;-85
2023/01/06 13:22:10;;;;;;;8.43;3.22;;;;;;;;;;5074870;28;20043;-86
2023/01/06 13:25:15;;;;;;;6.93;3.10;;;;;;;;;;5057887;28;20045;-83
2023/01/06 13:27:40;;;;;;;9.88;3.63;;;;;;;;;;5051725;28;20032;-84
2023/01/06 13:30:33;;;;;;;11.93;3.85;;;;;;;;;;5075322;28;20368;-84
2023/01/06 13:33:18;;;;;;;10.27;4.47;;;;;;;;;;5075995;28;20032;-84
2023/01/06 13:36:06;;;;;;;9.60;4.20;;;;;;;;;;5076872;28;20385;-84
2023/01/06 13:39:09;;;;;;;13.52;4.10;;;;;;;;;;5065775;28;20028;-84
2023/01/06 13:41:39;;;;;;;11.38;3.60;;;;;;;;;;5044935;28;20401;-84
2023/01/06 13:44:46;;;;;;;17.92;5.72;;;;;;;;;;5074898;28;20031;-85
2023/01/06 13:47:14;;;;;;;12.65;4.82;;;;;;;;;;5080304;28;20032;-83
2023/01/06 13:49:39;;;;;;;9.25;4.25;;;;;;;;;;5075087;28;20472;-85
2023/01/06 13:52:07;;;;;;;13.00;4.25;;;;;;;;;;5076043;28;20032;-83
2023/01/06 13:54:59;;;;;;;12.10;4.97;;;;;;;;;;5060425;28;20032;-84
2023/01/06 13:57:36;;;;;;;14.00;4.55;;;;;;;;;;5040198;28;20075;-84
2023/01/06 14:00:01;;;;;;;26.25;6.40;;;;;;;;;;5076864;28;20028;-86
2023/01/06 14:02:33;;;;;;;18.95;8.95;;;;;;;;;;5075659;28;20078;-83
2023/01/06 14:05:29;;;;;;;23.73;9.63;;;;;;;;;;5080183;28;20047;-82
2023/01/06 14:07:58;;;;;;;22.33;9.18;;;;;;;;;;5092851;28;20036;-84
2023/01/06 14:10:30;;;;;;;25.20;11.93;;;;;;;;;;5062535;28;20066;-85
2023/01/06 14:12:55;;;;;;;23.75;12.38;;;;;;;;;;5074136;28;20298;-84
2023/01/06 14:15:30;;;;;;;28.58;14.30;;;;;;;;;;5056143;28;20040;-84
2023/01/06 14:17:56;;;;;;;16.38;8.20;;;;;;;;;;5056071;28;20074;-85
2023/01/06 14:20:31;;;;;;;25.60;8.60;;;;;;;;;;5072769;28;20032;-84
2023/01/06 14:23:01;;;;;;;15.57;5.72;;;;;;;;;;5074773;28;20040;-83
2023/01/06 14:25:27;;;;;;;10.97;6.00;;;;;;;;;;5059775;28;20094;-83
2023/01/06 14:27:52;;;;;;;11.48;5.10;;;;;;;;;;5055800;28;20379;-83
2023/01/06 14:30:25;;;;;;;8.75;5.03;;;;;;;;;;5073834;28;20132;-83
2023/01/06 14:32:51;;;;;;;15.10;5.57;;;;;;;;;;5056015;28;20040;-84
2023/01/06 14:35:25;;;;;;;8.90;4.40;;;;;;;;;;5073312;28;20048;-84
2023/01/06 14:37:55;;;;;;;7.05;4.28;;;;;;;;;;5057007;28;20028;-83
2023/01/06 14:40:25;;;;;;;9.25;4.40;;;;;;;;;;5039465;28;20109;-83
2023/01/06 14:42:51;;;;;;;9.82;4.18;;;;;;;;;;5059818;28;20028;-84
2023/01/06 14:45:17;;;;;;;10.45;4.15;;;;;;;;;;5072476;28;20032;-84
2023/01/06 14:47:44;;;;;;;7.72;4.10;;;;;;;;;;5072511;28;20039;-84
2023/01/06 14:50:40;;;;;;;11.20;4.57;;;;;;;;;;5056048;28;20041;-84
2023/01/06 14:53:17;;;;;;;9.10;4.45;;;;;;;;;;5070730;28;20041;-84
2023/01/06 14:55:45;;;;;;;15.00;8.10;;;;;;;;;;5071936;28;20373;-83
2023/01/06 14:58:38;;;;;;;17.90;7.72;;;;;;;;;;5072519;28;20032;-84
2023/01/06 15:01:04;;;;;;;21.42;8.30;;;;;;;;;;5060746;28;20024;-83
2023/01/06 15:03:30;;;;;;;20.27;9.55;;;;;;;;;;5081443;28;20087;-84
2023/01/06 15:06:21;;;;;;;36.10;12.07;;;;;;;;;;5059251;28;20072;-84
2023/01/06 15:08:47;;;;;;;33.10;11.98;;;;;;;;;;5076039;28;20056;-83
2023/01/06 15:11:21;;;;;;;21.88;8.02;;;;;;;;;;5075529;28;20102;-83
2023/01/06 15:13:47;;;;;;;19.05;7.35;;;;;;;;;;5043020;28;20043;-84